sensor_id;sensor_type;location;lat;lon;timestamp;P1;durP1;ratioP1;P2;durP2;ratioP2
64351;SDS011;50680;52.626;-8.668;2023-04-06T00:00:49;9.23;;;2.00;;
64351;SDS011;50680;52.626;-8.668;2023-04-06T00:03:16;6.43;;;1.85;;
64351;SDS011;50680;52.626;-8.668;2023-04-06T00:05:43;10.13;;;2.00;;
64351;SDS011;50680;52.626;-8.668;2023-04-06T00:08:10;7.70;;;1.90;;
64351;SDS011;50680;52.626;-8.668;2023-04-06T00:10:37;8.25;;;2.50;;
64351;SDS011;50680;52.626;-8.668;2023-04-06T00:13:04;8.63;;;2.10;;
64351;SDS011;50680;52.626;-8.668;2023-04-06T00:15:32;8.68;;;1.95;;
64351;SDS011;50680;52.626;-8.668;2023-04-06T00:17:58;6.55;;;2.08;;
64351;SDS011;50680;52.626;-8.668;2023-04-06T00:20:25;6.07;;;2.30;;
64351;SDS011;50680;52.626;-8.668;2023-04-06T00:22:52;7.63;;;2.47;;
64351;SDS011;50680;52.626;-8.668;2023-04-06T00:25:20;7.32;;;2.05;;
64351;SDS011;50680;52.626;-8.668;2023-04-06T00:27:47;11.93;;;2.30;;
64351;SDS011;50680;52.626;-8.668;2023-04-06T00:30:13;6.15;;;2.00;;
64351;SDS011;50680;52.626;-8.668;2023-04-06T00:32:40;6.68;;;2.40;;
64351;SDS011;50680;52.626;-8.668;2023-04-06T00:35:07;13.05;;;2.13;;
64351;SDS011;50680;52.626;-8.668;2023-04-06T00:37:34;12.77;;;1.90;;
64351;SDS011;50680;52.626;-8.668;2023-04-06T00:40:01;6.43;;;2.15;;
64351;SDS011;50680;52.626;-8.668;2023-04-06T00:42:28;8.80;;;2.47;;
64351;SDS011;50680;52.626;-8.668;2023-04-06T00:44:56;12.40;;;2.10;;
64351;SDS011;50680;52.626;-8.668;2023-04-06T00:47:25;9.20;;;2.33;;
64351;SDS011;50680;52.626;-8.668;2023-04-06T00:49:56;10.15;;;1.75;;
64351;SDS011;50680;52.626;-8.668;2023-04-06T00:52:23;9.80;;;2.35;;
64351;SDS011;50680;52.626;-8.668;2023-04-06T00:54:50;8.93;;;2.05;;
64351;SDS011;50680;52.626;-8.668;2023-04-06T00:57:17;8.32;;;2.05;;
64351;SDS011;50680;52.626;-8.668;2023-04-06T00:59:44;5.60;;;2.17;;
64351;SDS011;50680;52.626;-8.668;2023-04-06T01:02:11;12.15;;;2.08;;
64351;SDS011;50680;52.626;-8.668;2023-04-06T01:04:38;7.78;;;2.05;;
64351;SDS011;50680;52.626;-8.668;2023-04-06T01:07:06;8.45;;;2.45;;
64351;SDS011;50680;52.626;-8.668;2023-04-06T01:09:32;8.48;;;2.25;;
64351;SDS011;50680;52.626;-8.668;2023-04-06T01:11:59;9.63;;;2.00;;
64351;SDS011;50680;52.626;-8.668;2023-04-06T01:14:27;5.00;;;1.75;;
64351;SDS011;50680;52.626;-8.668;2023-04-06T01:16:54;8.70;;;2.03;;
64351;SDS011;50680;52.626;-8.668;2023-04-06T01:19:24;9.15;;;2.45;;
64351;SDS011;50680;52.626;-8.668;2023-04-06T01:21:50;8.75;;;2.10;;
64351;SDS011;50680;52.626;-8.668;2023-04-06T01:24:19;9.88;;;2.92;;
64351;SDS011;50680;52.626;-8.668;2023-04-06T01:26:47;8.40;;;2.10;;
64351;SDS011;50680;52.626;-8.668;2023-04-06T01:29:14;8.68;;;3.03;;
64351;SDS011;50680;52.626;-8.668;2023-04-06T01:31:41;9.50;;;2.17;;
64351;SDS011;50680;52.626;-8.668;2023-04-06T01:34:07;8.13;;;2.45;;
64351;SDS011;50680;52.626;-8.668;2023-04-06T01:36:34;7.55;;;2.28;;
64351;SDS011;50680;52.626;-8.668;2023-04-06T01:39:01;7.40;;;2.03;;
64351;SDS011;50680;52.626;-8.668;2023-04-06T01:41:28;8.30;;;2.33;;
64351;SDS011;50680;52.626;-8.668;2023-04-06T01:43:55;11.45;;;2.90;;
64351;SDS011;50680;52.626;-8.668;2023-04-06T01:46:22;8.50;;;2.25;;
64351;SDS011;50680;52.626;-8.668;2023-04-06T01:48:48;9.63;;;1.92;;
64351;SDS011;50680;52.626;-8.668;2023-04-06T01:51:15;6.20;;;2.38;;
64351;SDS011;50680;52.626;-8.668;2023-04-06T01:53:42;17.38;;;2.22;;
64351;SDS011;50680;52.626;-8.668;2023-04-06T01:56:09;8.30;;;1.90;;
64351;SDS011;50680;52.626;-8.668;2023-04-06T01:58:36;5.75;;;2.33;;
64351;SDS011;50680;52.626;-8.668;2023-04-06T02:01:03;9.27;;;1.63;;
64351;SDS011;50680;52.626;-8.668;2023-04-06T02:03:30;7.85;;;1.95;;
64351;SDS011;50680;52.626;-8.668;2023-04-06T02:05:57;13.38;;;1.63;;
64351;SDS011;50680;52.626;-8.668;2023-04-06T02:08:24;5.57;;;1.27;;
64351;SDS011;50680;52.626;-8.668;2023-04-06T02:10:51;5.32;;;0.73;;
64351;SDS011;50680;52.626;-8.668;2023-04-06T02:13:18;3.50;;;0.50;;
64351;SDS011;50680;52.626;-8.668;2023-04-06T02:15:45;3.63;;;0.75;;
64351;SDS011;50680;52.626;-8.668;2023-04-06T02:18:12;4.63;;;0.60;;
64351;SDS011;50680;52.626;-8.668;2023-04-06T02:20:38;4.30;;;0.85;;
64351;SDS011;50680;52.626;-8.668;2023-04-06T02:23:05;2.10;;;0.50;;
64351;SDS011;50680;52.626;-8.668;2023-04-06T02:25:32;9.38;;;1.05;;
64351;SDS011;50680;52.626;-8.668;2023-04-06T02:27:59;1.90;;;0.43;;
64351;SDS011;50680;52.626;-8.668;2023-04-06T02:30:26;3.55;;;0.50;;
64351;SDS011;50680;52.626;-8.668;2023-04-06T02:32:53;1.65;;;0.50;;
64351;SDS011;50680;52.626;-8.668;2023-04-06T02:35:19;0.95;;;0.60;;
64351;SDS011;50680;52.626;-8.668;2023-04-06T02:37:46;0.73;;;0.30;;
64351;SDS011;50680;52.626;-8.668;2023-04-06T02:40:13;0.22;;;0.22;;
64351;SDS011;50680;52.626;-8.668;2023-04-06T02:42:40;2.90;;;0.50;;
64351;SDS011;50680;52.626;-8.668;2023-04-06T02:45:07;1.58;;;0.50;;
64351;SDS011;50680;52.626;-8.668;2023-04-06T02:47:34;1.83;;;0.43;;
64351;SDS011;50680;52.626;-8.668;2023-04-06T02:50:01;1.40;;;0.40;;
64351;SDS011;50680;52.626;-8.668;2023-04-06T02:52:28;4.25;;;0.57;;
64351;SDS011;50680;52.626;-8.668;2023-04-06T02:54:55;3.35;;;0.63;;
64351;SDS011;50680;52.626;-8.668;2023-04-06T02:57:21;7.63;;;0.80;;
64351;SDS011;50680;52.626;-8.668;2023-04-06T02:59:48;3.47;;;0.70;;
64351;SDS011;50680;52.626;-8.668;2023-04-06T03:02:15;4.53;;;0.77;;
64351;SDS011;50680;52.626;-8.668;2023-04-06T03:04:42;5.55;;;0.80;;
64351;SDS011;50680;52.626;-8.668;2023-04-06T03:07:10;5.28;;;0.50;;
64351;SDS011;50680;52.626;-8.668;2023-04-06T03:09:37;3.58;;;0.63;;
64351;SDS011;50680;52.626;-8.668;2023-04-06T03:12:05;6.40;;;0.80;;
64351;SDS011;50680;52.626;-8.668;2023-04-06T03:14:35;5.80;;;0.65;;
64351;SDS011;50680;52.626;-8.668;2023-04-06T03:17:02;3.90;;;0.50;;
64351;SDS011;50680;52.626;-8.668;2023-04-06T03:19:28;5.88;;;0.57;;
64351;SDS011;50680;52.626;-8.668;2023-04-06T03:21:55;0.88;;;0.57;;
64351;SDS011;50680;52.626;-8.668;2023-04-06T03:24:22;4.05;;;0.90;;
64351;SDS011;50680;52.626;-8.668;2023-04-06T03:26:49;1.45;;;0.50;;
64351;SDS011;50680;52.626;-8.668;2023-04-06T03:29:16;8.43;;;0.60;;
64351;SDS011;50680;52.626;-8.668;2023-04-06T03:31:42;4.05;;;0.80;;
64351;SDS011;50680;52.626;-8.668;2023-04-06T03:34:10;3.05;;;0.60;;
64351;SDS011;50680;52.626;-8.668;2023-04-06T03:36:36;6.78;;;0.70;;
64351;SDS011;50680;52.626;-8.668;2023-04-06T03:39:03;7.38;;;0.60;;
64351;SDS011;50680;52.626;-8.668;2023-04-06T03:41:30;1.98;;;0.40;;
64351;SDS011;50680;52.626;-8.668;2023-04-06T03:43:57;4.18;;;0.60;;
64351;SDS011;50680;52.626;-8.668;2023-04-06T03:46:24;5.10;;;0.70;;
64351;SDS011;50680;52.626;-8.668;2023-04-06T03:48:51;6.03;;;0.60;;
64351;SDS011;50680;52.626;-8.668;2023-04-06T03:51:18;1.67;;;0.60;;
64351;SDS011;50680;52.626;-8.668;2023-04-06T03:53:44;2.90;;;0.60;;
64351;SDS011;50680;52.626;-8.668;2023-04-06T03:56:11;1.77;;;0.40;;
64351;SDS011;50680;52.626;-8.668;2023-04-06T03:58:38;2.63;;;0.55;;
64351;SDS011;50680;52.626;-8.668;2023-04-06T04:01:05;2.08;;;0.40;;
64351;SDS011;50680;52.626;-8.668;2023-04-06T04:03:31;6.13;;;0.70;;
64351;SDS011;50680;52.626;-8.668;2023-04-06T04:05:58;2.13;;;0.40;;
64351;SDS011;50680;52.626;-8.668;2023-04-06T04:08:25;1.35;;;0.75;;
64351;SDS011;50680;52.626;-8.668;2023-04-06T04:10:52;3.67;;;0.50;;
64351;SDS011;50680;52.626;-8.668;2023-04-06T04:13:19;3.65;;;0.50;;
64351;SDS011;50680;52.626;-8.668;2023-04-06T04:15:46;2.72;;;0.40;;
64351;SDS011;50680;52.626;-8.668;2023-04-06T04:18:13;1.83;;;0.63;;
64351;SDS011;50680;52.626;-8.668;2023-04-06T04:20:41;2.05;;;0.63;;
64351;SDS011;50680;52.626;-8.668;2023-04-06T04:23:07;8.48;;;0.70;;
64351;SDS011;50680;52.626;-8.668;2023-04-06T04:25:34;5.97;;;0.55;;
64351;SDS011;50680;52.626;-8.668;2023-04-06T04:28:01;2.78;;;0.60;;
64351;SDS011;50680;52.626;-8.668;2023-04-06T04:30:28;2.05;;;0.70;;
64351;SDS011;50680;52.626;-8.668;2023-04-06T04:32:55;9.93;;;0.70;;
64351;SDS011;50680;52.626;-8.668;2023-04-06T04:35:22;2.65;;;0.50;;
64351;SDS011;50680;52.626;-8.668;2023-04-06T04:37:49;2.00;;;0.70;;
64351;SDS011;50680;52.626;-8.668;2023-04-06T04:40:16;10.30;;;0.70;;
64351;SDS011;50680;52.626;-8.668;2023-04-06T04:42:43;1.63;;;0.50;;
64351;SDS011;50680;52.626;-8.668;2023-04-06T04:45:11;2.78;;;0.40;;
64351;SDS011;50680;52.626;-8.668;2023-04-06T04:47:38;0.75;;;0.50;;
64351;SDS011;50680;52.626;-8.668;2023-04-06T04:50:05;2.78;;;0.63;;
64351;SDS011;50680;52.626;-8.668;2023-04-06T04:52:32;3.08;;;0.60;;
64351;SDS011;50680;52.626;-8.668;2023-04-06T04:54:58;1.90;;;0.43;;
64351;SDS011;50680;52.626;-8.668;2023-04-06T04:57:25;4.95;;;0.40;;
64351;SDS011;50680;52.626;-8.668;2023-04-06T04:59:52;7.90;;;0.95;;
64351;SDS011;50680;52.626;-8.668;2023-04-06T05:02:22;1.92;;;1.08;;
64351;SDS011;50680;52.626;-8.668;2023-04-06T05:04:49;3.10;;;0.50;;
64351;SDS011;50680;52.626;-8.668;2023-04-06T05:07:16;2.85;;;0.52;;
64351;SDS011;50680;52.626;-8.668;2023-04-06T05:09:44;6.20;;;0.50;;
64351;SDS011;50680;52.626;-8.668;2023-04-06T05:12:11;4.65;;;0.60;;
64351;SDS011;50680;52.626;-8.668;2023-04-06T05:14:38;4.68;;;0.50;;
64351;SDS011;50680;52.626;-8.668;2023-04-06T05:17:05;3.63;;;0.57;;
64351;SDS011;50680;52.626;-8.668;2023-04-06T05:19:32;3.25;;;0.60;;
64351;SDS011;50680;52.626;-8.668;2023-04-06T05:21:59;1.75;;;0.70;;
64351;SDS011;50680;52.626;-8.668;2023-04-06T05:24:26;6.30;;;0.65;;
64351;SDS011;50680;52.626;-8.668;2023-04-06T05:26:52;5.70;;;0.70;;
64351;SDS011;50680;52.626;-8.668;2023-04-06T05:29:19;2.00;;;0.70;;
64351;SDS011;50680;52.626;-8.668;2023-04-06T05:31:47;5.88;;;0.70;;
64351;SDS011;50680;52.626;-8.668;2023-04-06T05:34:14;2.33;;;0.60;;
64351;SDS011;50680;52.626;-8.668;2023-04-06T05:36:41;3.65;;;0.52;;
64351;SDS011;50680;52.626;-8.668;2023-04-06T05:39:08;1.63;;;0.60;;
64351;SDS011;50680;52.626;-8.668;2023-04-06T05:41:35;2.75;;;0.80;;
64351;SDS011;50680;52.626;-8.668;2023-04-06T05:44:02;4.05;;;0.57;;
64351;SDS011;50680;52.626;-8.668;2023-04-06T05:46:29;6.15;;;0.85;;
64351;SDS011;50680;52.626;-8.668;2023-04-06T05:48:56;5.55;;;0.70;;
64351;SDS011;50680;52.626;-8.668;2023-04-06T05:51:22;4.57;;;0.70;;
64351;SDS011;50680;52.626;-8.668;2023-04-06T05:53:49;3.53;;;0.60;;
64351;SDS011;50680;52.626;-8.668;2023-04-06T05:56:16;5.70;;;0.50;;
64351;SDS011;50680;52.626;-8.668;2023-04-06T05:58:43;5.57;;;0.80;;
64351;SDS011;50680;52.626;-8.668;2023-04-06T06:01:10;1.75;;;0.50;;
64351;SDS011;50680;52.626;-8.668;2023-04-06T06:03:37;3.65;;;0.60;;
64351;SDS011;50680;52.626;-8.668;2023-04-06T06:06:04;3.20;;;0.47;;
64351;SDS011;50680;52.626;-8.668;2023-04-06T06:08:31;4.50;;;0.40;;
64351;SDS011;50680;52.626;-8.668;2023-04-06T06:10:58;3.88;;;0.45;;
64351;SDS011;50680;52.626;-8.668;2023-04-06T06:13:24;4.60;;;0.60;;
64351;SDS011;50680;52.626;-8.668;2023-04-06T06:15:51;3.55;;;0.40;;
64351;SDS011;50680;52.626;-8.668;2023-04-06T06:18:18;3.72;;;0.43;;
64351;SDS011;50680;52.626;-8.668;2023-04-06T06:20:45;3.45;;;0.50;;
64351;SDS011;50680;52.626;-8.668;2023-04-06T06:23:12;2.97;;;0.50;;
64351;SDS011;50680;52.626;-8.668;2023-04-06T06:25:38;3.35;;;0.50;;
64351;SDS011;50680;52.626;-8.668;2023-04-06T06:28:05;4.85;;;0.40;;
64351;SDS011;50680;52.626;-8.668;2023-04-06T06:30:32;3.30;;;0.40;;
64351;SDS011;50680;52.626;-8.668;2023-04-06T06:32:59;2.60;;;0.47;;
64351;SDS011;50680;52.626;-8.668;2023-04-06T06:35:26;0.82;;;0.38;;
64351;SDS011;50680;52.626;-8.668;2023-04-06T06:37:53;3.17;;;0.50;;
64351;SDS011;50680;52.626;-8.668;2023-04-06T06:40:19;1.23;;;0.30;;
64351;SDS011;50680;52.626;-8.668;2023-04-06T06:42:50;1.52;;;0.50;;
64351;SDS011;50680;52.626;-8.668;2023-04-06T06:45:17;3.53;;;0.50;;
64351;SDS011;50680;52.626;-8.668;2023-04-06T06:47:44;1.55;;;0.40;;
64351;SDS011;50680;52.626;-8.668;2023-04-06T06:50:12;3.35;;;0.40;;
64351;SDS011;50680;52.626;-8.668;2023-04-06T06:52:39;2.75;;;0.40;;
64351;SDS011;50680;52.626;-8.668;2023-04-06T06:55:06;3.50;;;0.80;;
64351;SDS011;50680;52.626;-8.668;2023-04-06T06:57:34;1.88;;;0.30;;
64351;SDS011;50680;52.626;-8.668;2023-04-06T07:00:01;4.25;;;0.40;;
64351;SDS011;50680;52.626;-8.668;2023-04-06T07:02:28;2.38;;;0.40;;
64351;SDS011;50680;52.626;-8.668;2023-04-06T07:04:55;1.77;;;0.40;;
64351;SDS011;50680;52.626;-8.668;2023-04-06T07:07:22;0.85;;;0.38;;
64351;SDS011;50680;52.626;-8.668;2023-04-06T07:09:48;1.42;;;0.22;;
64351;SDS011;50680;52.626;-8.668;2023-04-06T07:12:15;2.65;;;0.57;;
64351;SDS011;50680;52.626;-8.668;2023-04-06T07:14:42;0.52;;;0.22;;
64351;SDS011;50680;52.626;-8.668;2023-04-06T07:17:09;1.25;;;0.40;;
64351;SDS011;50680;52.626;-8.668;2023-04-06T07:19:36;1.73;;;0.30;;
64351;SDS011;50680;52.626;-8.668;2023-04-06T07:22:03;1.48;;;0.38;;
64351;SDS011;50680;52.626;-8.668;2023-04-06T07:24:30;1.38;;;0.30;;
64351;SDS011;50680;52.626;-8.668;2023-04-06T07:26:58;1.20;;;0.73;;
64351;SDS011;50680;52.626;-8.668;2023-04-06T07:29:26;2.20;;;0.22;;
64351;SDS011;50680;52.626;-8.668;2023-04-06T07:31:54;0.20;;;0.20;;
64351;SDS011;50680;52.626;-8.668;2023-04-06T07:34:21;0.80;;;0.40;;
64351;SDS011;50680;52.626;-8.668;2023-04-06T07:36:48;1.13;;;0.57;;
64351;SDS011;50680;52.626;-8.668;2023-04-06T07:39:15;0.40;;;0.30;;
64351;SDS011;50680;52.626;-8.668;2023-04-06T07:41:42;2.00;;;0.22;;
64351;SDS011;50680;52.626;-8.668;2023-04-06T07:44:08;2.63;;;0.50;;
64351;SDS011;50680;52.626;-8.668;2023-04-06T07:46:35;0.95;;;0.30;;
64351;SDS011;50680;52.626;-8.668;2023-04-06T07:49:02;1.45;;;0.35;;
64351;SDS011;50680;52.626;-8.668;2023-04-06T07:51:29;1.55;;;0.47;;
64351;SDS011;50680;52.626;-8.668;2023-04-06T07:53:57;1.13;;;0.40;;
64351;SDS011;50680;52.626;-8.668;2023-04-06T07:56:24;2.92;;;0.50;;
64351;SDS011;50680;52.626;-8.668;2023-04-06T07:58:51;1.65;;;0.70;;
64351;SDS011;50680;52.626;-8.668;2023-04-06T08:01:19;4.65;;;0.60;;
64351;SDS011;50680;52.626;-8.668;2023-04-06T08:03:46;2.75;;;0.77;;
64351;SDS011;50680;52.626;-8.668;2023-04-06T08:06:13;1.73;;;0.88;;
64351;SDS011;50680;52.626;-8.668;2023-04-06T08:08:41;3.72;;;0.70;;
64351;SDS011;50680;52.626;-8.668;2023-04-06T08:11:08;3.65;;;0.65;;
64351;SDS011;50680;52.626;-8.668;2023-04-06T08:13:35;3.88;;;0.93;;
64351;SDS011;50680;52.626;-8.668;2023-04-06T08:16:02;5.60;;;0.80;;
64351;SDS011;50680;52.626;-8.668;2023-04-06T08:18:29;4.28;;;0.73;;
64351;SDS011;50680;52.626;-8.668;2023-04-06T08:20:56;2.85;;;0.70;;
64351;SDS011;50680;52.626;-8.668;2023-04-06T08:23:23;2.95;;;0.90;;
64351;SDS011;50680;52.626;-8.668;2023-04-06T08:25:50;5.15;;;0.90;;
64351;SDS011;50680;52.626;-8.668;2023-04-06T08:28:20;5.57;;;1.00;;
64351;SDS011;50680;52.626;-8.668;2023-04-06T08:30:47;3.45;;;0.90;;
64351;SDS011;50680;52.626;-8.668;2023-04-06T08:33:14;7.97;;;0.98;;
64351;SDS011;50680;52.626;-8.668;2023-04-06T08:35:42;9.93;;;1.10;;
64351;SDS011;50680;52.626;-8.668;2023-04-06T08:38:08;9.40;;;1.25;;
64351;SDS011;50680;52.626;-8.668;2023-04-06T08:40:36;5.32;;;1.10;;
64351;SDS011;50680;52.626;-8.668;2023-04-06T08:43:05;2.65;;;0.70;;
64351;SDS011;50680;52.626;-8.668;2023-04-06T08:45:35;4.40;;;1.35;;
64351;SDS011;50680;52.626;-8.668;2023-04-06T08:48:02;4.75;;;1.17;;
64351;SDS011;50680;52.626;-8.668;2023-04-06T08:50:30;5.05;;;1.30;;
64351;SDS011;50680;52.626;-8.668;2023-04-06T08:52:58;7.60;;;1.10;;
64351;SDS011;50680;52.626;-8.668;2023-04-06T08:55:26;7.20;;;1.10;;
64351;SDS011;50680;52.626;-8.668;2023-04-06T08:57:53;5.45;;;1.00;;
64351;SDS011;50680;52.626;-8.668;2023-04-06T09:00:21;4.35;;;1.13;;
64351;SDS011;50680;52.626;-8.668;2023-04-06T09:02:49;8.85;;;0.98;;
64351;SDS011;50680;52.626;-8.668;2023-04-06T09:05:18;6.63;;;1.08;;
64351;SDS011;50680;52.626;-8.668;2023-04-06T09:07:45;5.70;;;0.95;;
64351;SDS011;50680;52.626;-8.668;2023-04-06T09:10:12;5.65;;;1.05;;
64351;SDS011;50680;52.626;-8.668;2023-04-06T09:12:39;8.45;;;1.10;;
64351;SDS011;50680;52.626;-8.668;2023-04-06T09:15:06;12.50;;;1.17;;
64351;SDS011;50680;52.626;-8.668;2023-04-06T09:17:47;4.82;;;0.95;;
64351;SDS011;50680;52.626;-8.668;2023-04-06T09:20:14;9.15;;;1.40;;
64351;SDS011;50680;52.626;-8.668;2023-04-06T09:22:41;5.93;;;1.45;;
64351;SDS011;50680;52.626;-8.668;2023-04-06T09:25:08;7.68;;;0.95;;
64351;SDS011;50680;52.626;-8.668;2023-04-06T09:27:37;8.13;;;1.00;;
64351;SDS011;50680;52.626;-8.668;2023-04-06T09:32:32;7.07;;;1.08;;
64351;SDS011;50680;52.626;-8.668;2023-04-06T09:35:08;6.68;;;0.90;;
64351;SDS011;50680;52.626;-8.668;2023-04-06T09:37:35;8.07;;;0.98;;
64351;SDS011;50680;52.626;-8.668;2023-04-06T09:40:05;10.43;;;1.05;;
64351;SDS011;50680;52.626;-8.668;2023-04-06T09:45:01;3.53;;;0.90;;
64351;SDS011;50680;52.626;-8.668;2023-04-06T09:47:30;7.80;;;1.13;;
64351;SDS011;50680;52.626;-8.668;2023-04-06T09:49:58;10.48;;;1.92;;
64351;SDS011;50680;52.626;-8.668;2023-04-06T09:52:26;3.42;;;0.93;;
64351;SDS011;50680;52.626;-8.668;2023-04-06T09:54:59;4.40;;;1.50;;
64351;SDS011;50680;52.626;-8.668;2023-04-06T10:00:04;3.33;;;0.82;;
64351;SDS011;50680;52.626;-8.668;2023-04-06T10:07:57;4.82;;;0.95;;
64351;SDS011;50680;52.626;-8.668;2023-04-06T10:10:28;10.40;;;1.60;;
64351;SDS011;50680;52.626;-8.668;2023-04-06T10:12:55;6.18;;;0.93;;
64351;SDS011;50680;52.626;-8.668;2023-04-06T10:15:23;3.25;;;0.77;;
64351;SDS011;50680;52.626;-8.668;2023-04-06T10:17:50;6.53;;;1.00;;
64351;SDS011;50680;52.626;-8.668;2023-04-06T10:20:23;4.80;;;0.80;;
64351;SDS011;50680;52.626;-8.668;2023-04-06T10:23:05;6.43;;;0.80;;
64351;SDS011;50680;52.626;-8.668;2023-04-06T10:25:34;9.85;;;1.23;;
64351;SDS011;50680;52.626;-8.668;2023-04-06T10:30:35;7.43;;;0.82;;
64351;SDS011;50680;52.626;-8.668;2023-04-06T10:33:12;2.50;;;1.00;;
64351;SDS011;50680;52.626;-8.668;2023-04-06T10:35:43;6.53;;;0.98;;
64351;SDS011;50680;52.626;-8.668;2023-04-06T10:38:10;8.75;;;0.90;;
64351;SDS011;50680;52.626;-8.668;2023-04-06T10:40:41;4.57;;;0.80;;
64351;SDS011;50680;52.626;-8.668;2023-04-06T10:43:17;2.92;;;0.98;;
64351;SDS011;50680;52.626;-8.668;2023-04-06T10:45:55;4.13;;;0.80;;
64351;SDS011;50680;52.626;-8.668;2023-04-06T10:48:23;6.50;;;0.95;;
64351;SDS011;50680;52.626;-8.668;2023-04-06T10:50:53;5.20;;;1.20;;
64351;SDS011;50680;52.626;-8.668;2023-04-06T10:53:24;4.90;;;0.88;;
64351;SDS011;50680;52.626;-8.668;2023-04-06T10:55:53;4.18;;;0.85;;
64351;SDS011;50680;52.626;-8.668;2023-04-06T10:58:25;3.38;;;1.10;;
64351;SDS011;50680;52.626;-8.668;2023-04-06T11:03:20;4.47;;;0.95;;
64351;SDS011;50680;52.626;-8.668;2023-04-06T11:05:48;6.65;;;1.10;;
64351;SDS011;50680;52.626;-8.668;2023-04-06T11:08:22;3.55;;;0.88;;
64351;SDS011;50680;52.626;-8.668;2023-04-06T11:13:39;6.65;;;0.80;;
64351;SDS011;50680;52.626;-8.668;2023-04-06T11:16:07;5.00;;;1.27;;
64351;SDS011;50680;52.626;-8.668;2023-04-06T11:18:59;4.13;;;1.02;;
64351;SDS011;50680;52.626;-8.668;2023-04-06T11:21:35;4.68;;;0.82;;
64351;SDS011;50680;52.626;-8.668;2023-04-06T11:24:11;6.75;;;1.02;;
64351;SDS011;50680;52.626;-8.668;2023-04-06T11:29:18;6.07;;;0.80;;
64351;SDS011;50680;52.626;-8.668;2023-04-06T11:31:50;7.90;;;1.00;;
64351;SDS011;50680;52.626;-8.668;2023-04-06T11:36:49;5.18;;;1.08;;
64351;SDS011;50680;52.626;-8.668;2023-04-06T11:39:21;7.68;;;0.90;;
64351;SDS011;50680;52.626;-8.668;2023-04-06T11:41:50;3.45;;;0.80;;
64351;SDS011;50680;52.626;-8.668;2023-04-06T11:44:34;5.88;;;1.10;;
64351;SDS011;50680;52.626;-8.668;2023-04-06T11:47:07;3.38;;;1.25;;
64351;SDS011;50680;52.626;-8.668;2023-04-06T11:49:41;5.95;;;0.90;;
64351;SDS011;50680;52.626;-8.668;2023-04-06T11:52:14;5.10;;;0.88;;
64351;SDS011;50680;52.626;-8.668;2023-04-06T11:54:41;6.70;;;1.15;;
64351;SDS011;50680;52.626;-8.668;2023-04-06T11:57:08;5.78;;;1.15;;
64351;SDS011;50680;52.626;-8.668;2023-04-06T11:59:35;4.70;;;1.00;;
64351;SDS011;50680;52.626;-8.668;2023-04-06T12:02:03;5.10;;;0.93;;
64351;SDS011;50680;52.626;-8.668;2023-04-06T12:04:30;2.42;;;1.00;;
64351;SDS011;50680;52.626;-8.668;2023-04-06T12:06:57;2.83;;;0.60;;
64351;SDS011;50680;52.626;-8.668;2023-04-06T12:09:24;2.15;;;0.80;;
64351;SDS011;50680;52.626;-8.668;2023-04-06T12:11:51;2.95;;;0.70;;
64351;SDS011;50680;52.626;-8.668;2023-04-06T12:14:18;3.83;;;0.73;;
64351;SDS011;50680;52.626;-8.668;2023-04-06T12:16:45;2.40;;;0.60;;
64351;SDS011;50680;52.626;-8.668;2023-04-06T12:19:12;3.08;;;0.65;;
64351;SDS011;50680;52.626;-8.668;2023-04-06T12:21:39;1.95;;;0.70;;
64351;SDS011;50680;52.626;-8.668;2023-04-06T12:24:06;3.25;;;0.68;;
64351;SDS011;50680;52.626;-8.668;2023-04-06T12:26:33;2.22;;;0.65;;
64351;SDS011;50680;52.626;-8.668;2023-04-06T12:29:01;3.20;;;0.70;;
64351;SDS011;50680;52.626;-8.668;2023-04-06T12:31:36;4.38;;;0.82;;
64351;SDS011;50680;52.626;-8.668;2023-04-06T12:34:05;3.83;;;0.80;;
64351;SDS011;50680;52.626;-8.668;2023-04-06T12:36:32;5.93;;;0.73;;
64351;SDS011;50680;52.626;-8.668;2023-04-06T12:39:00;5.75;;;0.60;;
64351;SDS011;50680;52.626;-8.668;2023-04-06T12:41:27;3.97;;;0.90;;
64351;SDS011;50680;52.626;-8.668;2023-04-06T12:43:54;1.92;;;0.80;;
64351;SDS011;50680;52.626;-8.668;2023-04-06T12:46:21;1.83;;;0.70;;
64351;SDS011;50680;52.626;-8.668;2023-04-06T12:48:49;7.05;;;0.90;;
64351;SDS011;50680;52.626;-8.668;2023-04-06T12:51:20;2.80;;;0.90;;
64351;SDS011;50680;52.626;-8.668;2023-04-06T12:53:47;5.95;;;0.90;;
64351;SDS011;50680;52.626;-8.668;2023-04-06T12:56:17;4.18;;;0.95;;
64351;SDS011;50680;52.626;-8.668;2023-04-06T12:58:44;4.73;;;0.90;;
64351;SDS011;50680;52.626;-8.668;2023-04-06T13:01:12;3.28;;;0.82;;
64351;SDS011;50680;52.626;-8.668;2023-04-06T13:03:40;5.55;;;0.70;;
64351;SDS011;50680;52.626;-8.668;2023-04-06T13:06:07;3.80;;;0.75;;
64351;SDS011;50680;52.626;-8.668;2023-04-06T13:08:35;4.65;;;0.80;;
64351;SDS011;50680;52.626;-8.668;2023-04-06T13:11:04;6.43;;;1.00;;
64351;SDS011;50680;52.626;-8.668;2023-04-06T13:13:31;3.22;;;0.80;;
64351;SDS011;50680;52.626;-8.668;2023-04-06T13:15:59;4.63;;;1.00;;
64351;SDS011;50680;52.626;-8.668;2023-04-06T13:18:29;2.35;;;0.63;;
64351;SDS011;50680;52.626;-8.668;2023-04-06T13:20:56;3.65;;;0.60;;
64351;SDS011;50680;52.626;-8.668;2023-04-06T13:23:23;4.78;;;0.65;;
64351;SDS011;50680;52.626;-8.668;2023-04-06T13:26:00;2.20;;;0.70;;
64351;SDS011;50680;52.626;-8.668;2023-04-06T13:28:30;2.95;;;0.70;;
64351;SDS011;50680;52.626;-8.668;2023-04-06T13:30:58;6.80;;;0.77;;
64351;SDS011;50680;52.626;-8.668;2023-04-06T13:33:27;2.92;;;0.70;;
64351;SDS011;50680;52.626;-8.668;2023-04-06T13:35:54;7.72;;;0.98;;
64351;SDS011;50680;52.626;-8.668;2023-04-06T13:38:21;5.95;;;1.13;;
64351;SDS011;50680;52.626;-8.668;2023-04-06T13:40:50;4.63;;;0.80;;
64351;SDS011;50680;52.626;-8.668;2023-04-06T13:43:17;5.15;;;0.93;;
64351;SDS011;50680;52.626;-8.668;2023-04-06T13:45:50;4.82;;;1.00;;
64351;SDS011;50680;52.626;-8.668;2023-04-06T13:48:18;4.88;;;0.98;;
64351;SDS011;50680;52.626;-8.668;2023-04-06T13:50:45;3.70;;;0.80;;
64351;SDS011;50680;52.626;-8.668;2023-04-06T13:53:12;3.38;;;1.00;;
64351;SDS011;50680;52.626;-8.668;2023-04-06T13:55:40;4.47;;;1.00;;
64351;SDS011;50680;52.626;-8.668;2023-04-06T13:58:07;5.60;;;0.95;;
64351;SDS011;50680;52.626;-8.668;2023-04-06T14:00:34;5.05;;;0.90;;
64351;SDS011;50680;52.626;-8.668;2023-04-06T14:03:01;4.90;;;0.90;;
64351;SDS011;50680;52.626;-8.668;2023-04-06T14:05:32;1.02;;;0.50;;
64351;SDS011;50680;52.626;-8.668;2023-04-06T14:07:59;1.02;;;0.60;;
64351;SDS011;50680;52.626;-8.668;2023-04-06T14:10:26;5.15;;;0.73;;
64351;SDS011;50680;52.626;-8.668;2023-04-06T14:12:54;3.80;;;0.60;;
64351;SDS011;50680;52.626;-8.668;2023-04-06T14:15:22;4.72;;;0.70;;
64351;SDS011;50680;52.626;-8.668;2023-04-06T14:17:50;3.83;;;0.80;;
64351;SDS011;50680;52.626;-8.668;2023-04-06T14:20:18;3.50;;;0.85;;
64351;SDS011;50680;52.626;-8.668;2023-04-06T14:22:45;2.92;;;0.90;;
64351;SDS011;50680;52.626;-8.668;2023-04-06T14:25:13;2.33;;;0.82;;
64351;SDS011;50680;52.626;-8.668;2023-04-06T14:27:40;4.20;;;1.23;;
64351;SDS011;50680;52.626;-8.668;2023-04-06T14:30:07;2.75;;;0.77;;
64351;SDS011;50680;52.626;-8.668;2023-04-06T14:32:34;6.68;;;0.70;;
64351;SDS011;50680;52.626;-8.668;2023-04-06T14:35:03;2.55;;;0.70;;
64351;SDS011;50680;52.626;-8.668;2023-04-06T14:37:34;2.90;;;1.17;;
64351;SDS011;50680;52.626;-8.668;2023-04-06T14:40:01;2.90;;;0.70;;
64351;SDS011;50680;52.626;-8.668;2023-04-06T14:42:28;5.90;;;0.80;;
64351;SDS011;50680;52.626;-8.668;2023-04-06T14:44:55;4.43;;;0.90;;
64351;SDS011;50680;52.626;-8.668;2023-04-06T14:47:22;5.43;;;0.80;;
64351;SDS011;50680;52.626;-8.668;2023-04-06T14:49:49;2.80;;;0.80;;
64351;SDS011;50680;52.626;-8.668;2023-04-06T14:52:17;2.83;;;0.80;;
64351;SDS011;50680;52.626;-8.668;2023-04-06T14:54:44;4.65;;;0.90;;
64351;SDS011;50680;52.626;-8.668;2023-04-06T14:57:11;2.38;;;0.75;;
64351;SDS011;50680;52.626;-8.668;2023-04-06T14:59:38;5.95;;;0.85;;
64351;SDS011;50680;52.626;-8.668;2023-04-06T15:02:06;5.60;;;0.75;;